< < Back
Terminal Aerodrome Forecast


Current Version              Previous Versions:   1  2  3  4  5  6  7  8  9  

Terminal Aerodrome Forecast

712
FTUS42 KGSP 021742
TAFHKY
TAF
KHKY 021742Z 0218/0318 29008KT P6SM SCT040
     FM030000 04003KT P6SM BKN040
     FM030800 06004KT P6SM OVC024
     FM031200 05003KT 4SM -RA OVC008=

Latest METAR

274
SAUS70 KWBC 022300 RRA
MTRHKY
METAR KHKY 022253Z AUTO 33007KT 10SM CLR 14/M02 A3023 RMK AO2 SLP229
T01391022


USA.gov is the U.S. government's official web portal to all federal, state and local government web resources and services.